Saint George's, Canada
Current Conditions -  °F | °C
As of 11:00 AM on Thursday 23 Oct 2014 (Local Time) from CYJT Reporting Station
Broken Clouds Broken Clouds  
Wind Chill: 41°   Ceiling: 22000
Heat Index: 46°   Visibility: 15mi
Dew Point: 37°   Wind: 13mph
Humidity: 71%   Direction: 70°ENE
Pressure: 30.35"   Gusts: NA
Location:  48.43°N, 58.5°W
Report Text: CYJT 231300Z 07011KT 15SM BKN220 08/03 A3035 RMK CI6 SLP277
Loading
Personal Weather Stations






























Interactive Weather Map
Tropical Storm Tracking
New forecast layout! Learn more

10-Day Weather Forecast

Advertisements
Track Severe Weather on mobile